Terminal Aerodrome Forecast
Issued by NWS Mt. Holly, NJ

Home | Current Version | Previous Version | Text Only | Print | Product List | Glossary On
Versions: 1 2 3 4 5 6 7 8 9 10 11 12 13
000
FTUS41 KPHI 221756
TAFRDG
TAF
KRDG 221756Z 2218/2318 VRB04KT P6SM BKN120
     FM230700 00000KT 3SM BR FEW003 SCT080
     FM230900 00000KT 2SM BR SCT003 BKN009
      TEMPO 2310/2313 1/2SM FG VV003
     FM231400 VRB03KT 3SM BR SCT003 OVC010
     FM231600 22005KT 6SM BR SCT010 BKN060=

USA.gov is the U.S. government's official web portal to all federal, state and local government web resources and services.